カシュガル の空港の天気 - METARとTAF

カシュガル空港 ( ZWSH / KHG ) - 中国 新疆ウイグル自治区カシュガル市
飛行場実況気象(Metar)
観測時間07/22 23:00 CST (07/22 15:00 UTC)
風向・風速西南西 1m/s
視程7000m
天気現象
なし
気温31℃
湿度31%
気圧1006hPa
METARZWSH 221500Z 25001MPS 7000 NSC 31/12 Q1006 NOSIG
過去の天気等 Google飛行場航空写真 Wunderground天気予報

過去48時間のMETAR

飛行場予報(TAF)
発表時間: 7/22 23:06 CST (7/22 15:06 UTC)
予報対象時間: 23日2時 CST ~ 24日2時 CST
風向・風速北西 4m/s
視程6000m
なし
23日13時 CST ~ 23日14時 CST に徐々に
風向・風速東北東 4m/s
23日22時 CST ~ 23日23時 CST に徐々に
風向・風速北西 4m/s
TAF ZWSH 221506Z 2218/2318 31004MPS 6000 NSC TX36/2309Z TN24/2300Z
BECMG 2305/2306 06004MPS
BECMG 2314/2315 31004MPS